sensor_id;sensor_type;location;lat;lon;timestamp;temperature;humidity
21502;DHT22;27639;48.674;9.242;2023-03-01T00:00:37;2.70;48.70
21502;DHT22;27639;48.674;9.242;2023-03-01T00:03:02;2.70;48.80
21502;DHT22;27639;48.674;9.242;2023-03-01T00:05:28;2.70;48.70
21502;DHT22;27639;48.674;9.242;2023-03-01T00:07:54;2.70;48.80
21502;DHT22;27639;48.674;9.242;2023-03-01T00:10:19;2.70;48.80
21502;DHT22;27639;48.674;9.242;2023-03-01T00:12:45;2.70;48.90
21502;DHT22;27639;48.674;9.242;2023-03-01T00:15:10;2.70;49.00
21502;DHT22;27639;48.674;9.242;2023-03-01T00:17:37;2.60;48.90
21502;DHT22;27639;48.674;9.242;2023-03-01T00:20:02;2.60;49.00
21502;DHT22;27639;48.674;9.242;2023-03-01T00:22:28;2.60;49.10
21502;DHT22;27639;48.674;9.242;2023-03-01T00:24:54;2.60;49.10
21502;DHT22;27639;48.674;9.242;2023-03-01T00:27:19;2.60;49.10
21502;DHT22;27639;48.674;9.242;2023-03-01T00:29:45;2.60;49.10
21502;DHT22;27639;48.674;9.242;2023-03-01T00:32:11;2.50;49.00
21502;DHT22;27639;48.674;9.242;2023-03-01T00:34:36;2.50;49.00
21502;DHT22;27639;48.674;9.242;2023-03-01T00:37:02;2.50;49.00
21502;DHT22;27639;48.674;9.242;2023-03-01T00:39:31;2.50;49.10
21502;DHT22;27639;48.674;9.242;2023-03-01T00:41:57;2.50;49.10
21502;DHT22;27639;48.674;9.242;2023-03-01T00:44:23;2.50;49.10
21502;DHT22;27639;48.674;9.242;2023-03-01T00:46:48;2.40;49.00
21502;DHT22;27639;48.674;9.242;2023-03-01T00:49:14;2.40;49.10
21502;DHT22;27639;48.674;9.242;2023-03-01T00:51:39;2.50;49.20
21502;DHT22;27639;48.674;9.242;2023-03-01T00:54:08;2.40;49.20
21502;DHT22;27639;48.674;9.242;2023-03-01T00:56:34;2.40;49.30
21502;DHT22;27639;48.674;9.242;2023-03-01T00:59:00;2.40;49.30
21502;DHT22;27639;48.674;9.242;2023-03-01T01:01:28;2.30;49.20
21502;DHT22;27639;48.674;9.242;2023-03-01T01:03:59;2.30;49.30
21502;DHT22;27639;48.674;9.242;2023-03-01T01:06:28;2.30;49.30
21502;DHT22;27639;48.674;9.242;2023-03-01T01:08:54;2.30;49.40
21502;DHT22;27639;48.674;9.242;2023-03-01T01:11:21;2.20;49.50
21502;DHT22;27639;48.674;9.242;2023-03-01T01:13:48;2.30;49.60
21502;DHT22;27639;48.674;9.242;2023-03-01T01:16:14;2.20;49.60
21502;DHT22;27639;48.674;9.242;2023-03-01T01:18:40;2.20;49.50
21502;DHT22;27639;48.674;9.242;2023-03-01T01:21:09;2.20;49.50
21502;DHT22;27639;48.674;9.242;2023-03-01T01:23:36;2.20;49.60
21502;DHT22;27639;48.674;9.242;2023-03-01T01:26:10;2.20;49.60
21502;DHT22;27639;48.674;9.242;2023-03-01T01:28:36;2.20;50.30
21502;DHT22;27639;48.674;9.242;2023-03-01T01:31:02;2.20;49.60
21502;DHT22;27639;48.674;9.242;2023-03-01T01:33:28;2.20;50.00
21502;DHT22;27639;48.674;9.242;2023-03-01T01:35:53;2.10;49.60
21502;DHT22;27639;48.674;9.242;2023-03-01T01:38:19;2.10;49.80
21502;DHT22;27639;48.674;9.242;2023-03-01T01:40:46;2.10;49.80
21502;DHT22;27639;48.674;9.242;2023-03-01T01:43:22;2.10;49.90
21502;DHT22;27639;48.674;9.242;2023-03-01T01:45:49;2.10;49.90
21502;DHT22;27639;48.674;9.242;2023-03-01T01:48:20;2.10;50.00
21502;DHT22;27639;48.674;9.242;2023-03-01T01:50:52;2.10;50.00
21502;DHT22;27639;48.674;9.242;2023-03-01T01:53:20;2.10;50.10
21502;DHT22;27639;48.674;9.242;2023-03-01T01:55:51;2.10;50.20
21502;DHT22;27639;48.674;9.242;2023-03-01T01:58:19;2.20;50.30
21502;DHT22;27639;48.674;9.242;2023-03-01T02:00:46;2.20;50.30
21502;DHT22;27639;48.674;9.242;2023-03-01T02:03:15;2.20;50.30
21502;DHT22;27639;48.674;9.242;2023-03-01T02:06:03;2.30;50.30
21502;DHT22;27639;48.674;9.242;2023-03-01T02:08:31;2.40;50.40
21502;DHT22;27639;48.674;9.242;2023-03-01T02:10:58;2.40;50.40
21502;DHT22;27639;48.674;9.242;2023-03-01T02:13:25;2.40;50.40
21502;DHT22;27639;48.674;9.242;2023-03-01T02:15:51;2.50;50.50
21502;DHT22;27639;48.674;9.242;2023-03-01T02:18:18;2.50;50.60
21502;DHT22;27639;48.674;9.242;2023-03-01T02:20:54;2.50;50.60
21502;DHT22;27639;48.674;9.242;2023-03-01T02:23:24;2.60;50.60
21502;DHT22;27639;48.674;9.242;2023-03-01T02:26:11;2.60;50.60
21502;DHT22;27639;48.674;9.242;2023-03-01T02:28:40;2.70;50.50
21502;DHT22;27639;48.674;9.242;2023-03-01T02:31:09;2.70;50.60
21502;DHT22;27639;48.674;9.242;2023-03-01T02:33:54;2.70;50.50
21502;DHT22;27639;48.674;9.242;2023-03-01T02:36:24;2.80;50.70
21502;DHT22;27639;48.674;9.242;2023-03-01T02:38:54;2.80;50.50
21502;DHT22;27639;48.674;9.242;2023-03-01T02:41:22;2.80;50.60
21502;DHT22;27639;48.674;9.242;2023-03-01T02:43:48;2.80;50.60
21502;DHT22;27639;48.674;9.242;2023-03-01T02:46:20;2.90;50.50
21502;DHT22;27639;48.674;9.242;2023-03-01T02:48:56;2.90;50.50
21502;DHT22;27639;48.674;9.242;2023-03-01T02:51:48;3.00;50.50
21502;DHT22;27639;48.674;9.242;2023-03-01T02:54:23;3.00;50.30
21502;DHT22;27639;48.674;9.242;2023-03-01T02:56:50;3.00;50.40
21502;DHT22;27639;48.674;9.242;2023-03-01T02:59:19;3.10;50.40
21502;DHT22;27639;48.674;9.242;2023-03-01T03:01:45;3.10;50.40
21502;DHT22;27639;48.674;9.242;2023-03-01T03:04:15;3.20;50.40
21502;DHT22;27639;48.674;9.242;2023-03-01T03:06:43;3.20;50.30
21502;DHT22;27639;48.674;9.242;2023-03-01T03:09:08;3.20;50.20
21502;DHT22;27639;48.674;9.242;2023-03-01T03:11:35;3.20;50.20
21502;DHT22;27639;48.674;9.242;2023-03-01T03:14:02;3.20;50.30
21502;DHT22;27639;48.674;9.242;2023-03-01T03:16:28;3.30;50.40
21502;DHT22;27639;48.674;9.242;2023-03-01T03:18:55;3.30;50.40
21502;DHT22;27639;48.674;9.242;2023-03-01T03:21:31;3.30;50.30
21502;DHT22;27639;48.674;9.242;2023-03-01T03:23:57;3.30;50.40
21502;DHT22;27639;48.674;9.242;2023-03-01T03:26:23;3.30;50.30
21502;DHT22;27639;48.674;9.242;2023-03-01T03:28:49;3.40;50.50
21502;DHT22;27639;48.674;9.242;2023-03-01T03:31:14;3.40;50.50
21502;DHT22;27639;48.674;9.242;2023-03-01T03:33:40;3.40;50.50
21502;DHT22;27639;48.674;9.242;2023-03-01T03:36:06;3.40;50.50
21502;DHT22;27639;48.674;9.242;2023-03-01T03:38:31;3.40;50.50
21502;DHT22;27639;48.674;9.242;2023-03-01T03:41:05;3.50;50.50
21502;DHT22;27639;48.674;9.242;2023-03-01T03:43:34;3.50;50.50
21502;DHT22;27639;48.674;9.242;2023-03-01T03:46:02;3.50;50.50
21502;DHT22;27639;48.674;9.242;2023-03-01T03:48:38;3.50;50.40
21502;DHT22;27639;48.674;9.242;2023-03-01T03:51:04;3.60;50.40
21502;DHT22;27639;48.674;9.242;2023-03-01T03:53:33;3.60;50.40
21502;DHT22;27639;48.674;9.242;2023-03-01T03:55:59;3.60;50.40
21502;DHT22;27639;48.674;9.242;2023-03-01T03:58:25;3.60;50.30
21502;DHT22;27639;48.674;9.242;2023-03-01T04:00:53;3.60;50.30
21502;DHT22;27639;48.674;9.242;2023-03-01T04:03:21;3.60;50.40
21502;DHT22;27639;48.674;9.242;2023-03-01T04:05:47;3.60;50.30
21502;DHT22;27639;48.674;9.242;2023-03-01T04:08:15;3.60;50.40
21502;DHT22;27639;48.674;9.242;2023-03-01T04:10:43;3.60;50.40
21502;DHT22;27639;48.674;9.242;2023-03-01T04:13:12;3.70;50.40
21502;DHT22;27639;48.674;9.242;2023-03-01T04:15:38;3.70;50.40
21502;DHT22;27639;48.674;9.242;2023-03-01T04:18:04;3.70;50.50
21502;DHT22;27639;48.674;9.242;2023-03-01T04:20:33;3.70;50.50
21502;DHT22;27639;48.674;9.242;2023-03-01T04:23:07;3.70;50.40
21502;DHT22;27639;48.674;9.242;2023-03-01T04:25:39;3.70;50.30
21502;DHT22;27639;48.674;9.242;2023-03-01T04:28:05;3.80;50.30
21502;DHT22;27639;48.674;9.242;2023-03-01T04:30:31;3.70;50.40
21502;DHT22;27639;48.674;9.242;2023-03-01T04:33:02;3.70;50.40
21502;DHT22;27639;48.674;9.242;2023-03-01T04:35:29;3.80;50.40
21502;DHT22;27639;48.674;9.242;2023-03-01T04:37:54;3.80;50.40
21502;DHT22;27639;48.674;9.242;2023-03-01T04:40:20;3.80;50.40
21502;DHT22;27639;48.674;9.242;2023-03-01T04:42:46;3.80;50.30
21502;DHT22;27639;48.674;9.242;2023-03-01T04:45:12;3.80;50.30
21502;DHT22;27639;48.674;9.242;2023-03-01T04:47:39;3.80;50.30
21502;DHT22;27639;48.674;9.242;2023-03-01T04:50:06;3.80;50.20
21502;DHT22;27639;48.674;9.242;2023-03-01T04:52:32;3.80;50.30
21502;DHT22;27639;48.674;9.242;2023-03-01T04:54:57;3.80;50.30
21502;DHT22;27639;48.674;9.242;2023-03-01T04:57:23;3.80;50.30
21502;DHT22;27639;48.674;9.242;2023-03-01T04:59:48;3.80;50.00
21502;DHT22;27639;48.674;9.242;2023-03-01T05:02:14;3.80;50.10
21502;DHT22;27639;48.674;9.242;2023-03-01T05:04:39;3.80;50.20
21502;DHT22;27639;48.674;9.242;2023-03-01T05:07:05;3.80;50.30
21502;DHT22;27639;48.674;9.242;2023-03-01T05:09:30;3.80;50.20
21502;DHT22;27639;48.674;9.242;2023-03-01T05:11:56;3.80;50.20
21502;DHT22;27639;48.674;9.242;2023-03-01T05:14:21;3.90;50.40
21502;DHT22;27639;48.674;9.242;2023-03-01T05:16:48;3.90;50.30
21502;DHT22;27639;48.674;9.242;2023-03-01T05:19:13;3.90;50.20
21502;DHT22;27639;48.674;9.242;2023-03-01T05:21:48;3.90;50.10
21502;DHT22;27639;48.674;9.242;2023-03-01T05:24:33;3.80;50.20
21502;DHT22;27639;48.674;9.242;2023-03-01T05:27:00;3.80;50.30
21502;DHT22;27639;48.674;9.242;2023-03-01T05:29:27;3.80;50.20
21502;DHT22;27639;48.674;9.242;2023-03-01T05:32:00;3.80;50.30
21502;DHT22;27639;48.674;9.242;2023-03-01T05:34:28;3.80;50.30
21502;DHT22;27639;48.674;9.242;2023-03-01T05:36:54;3.80;50.40
21502;DHT22;27639;48.674;9.242;2023-03-01T05:39:24;3.80;50.40
21502;DHT22;27639;48.674;9.242;2023-03-01T05:41:55;3.90;50.50
21502;DHT22;27639;48.674;9.242;2023-03-01T05:44:22;3.90;50.20
21502;DHT22;27639;48.674;9.242;2023-03-01T05:46:47;3.90;50.30
21502;DHT22;27639;48.674;9.242;2023-03-01T05:49:13;4.00;50.40
21502;DHT22;27639;48.674;9.242;2023-03-01T05:51:47;4.00;50.30
21502;DHT22;27639;48.674;9.242;2023-03-01T05:54:12;4.00;50.10
21502;DHT22;27639;48.674;9.242;2023-03-01T05:56:38;3.90;50.10
21502;DHT22;27639;48.674;9.242;2023-03-01T05:59:05;4.00;50.20
21502;DHT22;27639;48.674;9.242;2023-03-01T06:01:32;3.90;50.10
21502;DHT22;27639;48.674;9.242;2023-03-01T06:03:57;4.00;50.10
21502;DHT22;27639;48.674;9.242;2023-03-01T06:06:23;4.00;50.10
21502;DHT22;27639;48.674;9.242;2023-03-01T06:08:49;4.00;50.20
21502;DHT22;27639;48.674;9.242;2023-03-01T06:11:15;4.00;50.10
21502;DHT22;27639;48.674;9.242;2023-03-01T06:13:42;4.00;50.10
21502;DHT22;27639;48.674;9.242;2023-03-01T06:16:08;4.00;50.20
21502;DHT22;27639;48.674;9.242;2023-03-01T06:18:34;4.00;50.20
21502;DHT22;27639;48.674;9.242;2023-03-01T06:20:59;4.00;50.30
21502;DHT22;27639;48.674;9.242;2023-03-01T06:23:25;4.10;50.20
21502;DHT22;27639;48.674;9.242;2023-03-01T06:25:51;4.10;50.20
21502;DHT22;27639;48.674;9.242;2023-03-01T06:28:16;4.10;50.20
21502;DHT22;27639;48.674;9.242;2023-03-01T06:30:42;4.10;50.20
21502;DHT22;27639;48.674;9.242;2023-03-01T06:33:08;4.10;50.20
21502;DHT22;27639;48.674;9.242;2023-03-01T06:35:34;4.10;50.20
21502;DHT22;27639;48.674;9.242;2023-03-01T06:38:01;4.10;50.20
21502;DHT22;27639;48.674;9.242;2023-03-01T06:40:28;4.20;50.40
21502;DHT22;27639;48.674;9.242;2023-03-01T06:42:54;4.20;50.10
21502;DHT22;27639;48.674;9.242;2023-03-01T06:45:20;4.20;50.10
21502;DHT22;27639;48.674;9.242;2023-03-01T06:47:47;4.20;50.20
21502;DHT22;27639;48.674;9.242;2023-03-01T06:50:14;4.20;50.30
21502;DHT22;27639;48.674;9.242;2023-03-01T06:52:40;4.20;50.10
21502;DHT22;27639;48.674;9.242;2023-03-01T06:55:06;4.20;50.10
21502;DHT22;27639;48.674;9.242;2023-03-01T06:57:31;4.30;49.90
21502;DHT22;27639;48.674;9.242;2023-03-01T06:59:57;4.30;50.00
21502;DHT22;27639;48.674;9.242;2023-03-01T07:02:23;4.30;49.90
21502;DHT22;27639;48.674;9.242;2023-03-01T07:04:50;4.30;50.00
21502;DHT22;27639;48.674;9.242;2023-03-01T07:07:16;4.30;50.10
21502;DHT22;27639;48.674;9.242;2023-03-01T07:09:46;4.30;50.20
21502;DHT22;27639;48.674;9.242;2023-03-01T07:12:12;4.30;50.40
21502;DHT22;27639;48.674;9.242;2023-03-01T07:14:37;4.30;50.40
21502;DHT22;27639;48.674;9.242;2023-03-01T07:17:03;4.40;50.80
21502;DHT22;27639;48.674;9.242;2023-03-01T07:19:28;4.40;50.90
21502;DHT22;27639;48.674;9.242;2023-03-01T07:21:54;4.50;50.70
21502;DHT22;27639;48.674;9.242;2023-03-01T07:24:21;4.70;50.70
21502;DHT22;27639;48.674;9.242;2023-03-01T07:26:51;4.80;50.80
21502;DHT22;27639;48.674;9.242;2023-03-01T07:29:17;4.90;50.60
21502;DHT22;27639;48.674;9.242;2023-03-01T07:31:43;5.00;50.50
21502;DHT22;27639;48.674;9.242;2023-03-01T07:34:09;5.10;50.20
21502;DHT22;27639;48.674;9.242;2023-03-01T07:36:36;5.20;50.30
21502;DHT22;27639;48.674;9.242;2023-03-01T07:39:01;5.30;50.10
21502;DHT22;27639;48.674;9.242;2023-03-01T07:41:28;5.40;50.00
21502;DHT22;27639;48.674;9.242;2023-03-01T07:43:54;5.50;49.50
21502;DHT22;27639;48.674;9.242;2023-03-01T07:46:19;5.50;49.40
21502;DHT22;27639;48.674;9.242;2023-03-01T07:48:45;5.60;49.40
21502;DHT22;27639;48.674;9.242;2023-03-01T07:51:11;5.60;49.30
21502;DHT22;27639;48.674;9.242;2023-03-01T07:53:37;5.70;49.20
21502;DHT22;27639;48.674;9.242;2023-03-01T07:56:10;5.70;49.00
21502;DHT22;27639;48.674;9.242;2023-03-01T07:58:37;5.70;48.80
21502;DHT22;27639;48.674;9.242;2023-03-01T08:01:08;5.70;49.00
21502;DHT22;27639;48.674;9.242;2023-03-01T08:03:35;5.80;49.10
21502;DHT22;27639;48.674;9.242;2023-03-01T08:06:06;5.90;49.00
21502;DHT22;27639;48.674;9.242;2023-03-01T08:08:32;6.00;48.90
21502;DHT22;27639;48.674;9.242;2023-03-01T08:11:02;6.10;48.60
21502;DHT22;27639;48.674;9.242;2023-03-01T08:13:28;6.20;48.20
21502;DHT22;27639;48.674;9.242;2023-03-01T08:15:54;6.20;48.20
21502;DHT22;27639;48.674;9.242;2023-03-01T08:18:20;6.30;48.00
21502;DHT22;27639;48.674;9.242;2023-03-01T08:20:46;6.30;47.70
21502;DHT22;27639;48.674;9.242;2023-03-01T08:23:12;6.30;47.80
21502;DHT22;27639;48.674;9.242;2023-03-01T08:25:38;6.30;47.70
21502;DHT22;27639;48.674;9.242;2023-03-01T08:28:04;6.30;47.70
21502;DHT22;27639;48.674;9.242;2023-03-01T08:30:30;6.30;47.70
21502;DHT22;27639;48.674;9.242;2023-03-01T08:32:55;6.40;47.50
21502;DHT22;27639;48.674;9.242;2023-03-01T08:35:21;6.40;47.70
21502;DHT22;27639;48.674;9.242;2023-03-01T08:37:47;6.50;46.80
21502;DHT22;27639;48.674;9.242;2023-03-01T08:40:13;6.60;47.50
21502;DHT22;27639;48.674;9.242;2023-03-01T08:42:40;6.60;47.30
21502;DHT22;27639;48.674;9.242;2023-03-01T08:45:07;6.60;46.70
21502;DHT22;27639;48.674;9.242;2023-03-01T08:47:33;6.70;47.00
21502;DHT22;27639;48.674;9.242;2023-03-01T08:49:59;6.80;45.90
21502;DHT22;27639;48.674;9.242;2023-03-01T08:52:25;6.90;46.10
21502;DHT22;27639;48.674;9.242;2023-03-01T08:54:52;6.90;45.70
21502;DHT22;27639;48.674;9.242;2023-03-01T08:57:18;6.90;45.30
21502;DHT22;27639;48.674;9.242;2023-03-01T08:59:43;6.80;45.80
21502;DHT22;27639;48.674;9.242;2023-03-01T09:02:13;6.80;45.70
21502;DHT22;27639;48.674;9.242;2023-03-01T09:04:39;6.80;45.90
21502;DHT22;27639;48.674;9.242;2023-03-01T09:07:05;7.00;46.00
21502;DHT22;27639;48.674;9.242;2023-03-01T09:09:30;7.10;46.00
21502;DHT22;27639;48.674;9.242;2023-03-01T09:11:56;7.20;45.20
21502;DHT22;27639;48.674;9.242;2023-03-01T09:14:21;7.40;44.70
21502;DHT22;27639;48.674;9.242;2023-03-01T09:16:47;7.40;44.40
21502;DHT22;27639;48.674;9.242;2023-03-01T09:19:13;7.40;44.00
21502;DHT22;27639;48.674;9.242;2023-03-01T09:21:39;7.40;44.30
21502;DHT22;27639;48.674;9.242;2023-03-01T09:24:05;7.40;45.00
21502;DHT22;27639;48.674;9.242;2023-03-01T09:26:31;7.50;43.90
21502;DHT22;27639;48.674;9.242;2023-03-01T09:28:57;7.50;43.60
21502;DHT22;27639;48.674;9.242;2023-03-01T09:31:24;7.50;43.70
21502;DHT22;27639;48.674;9.242;2023-03-01T09:33:51;7.50;44.20
21502;DHT22;27639;48.674;9.242;2023-03-01T09:36:20;7.60;43.70
21502;DHT22;27639;48.674;9.242;2023-03-01T09:38:47;7.80;43.50
21502;DHT22;27639;48.674;9.242;2023-03-01T09:46:57;7.80;43.00
21502;DHT22;27639;48.674;9.242;2023-03-01T09:49:30;7.80;43.40
21502;DHT22;27639;48.674;9.242;2023-03-01T09:53:17;7.80;43.50
21502;DHT22;27639;48.674;9.242;2023-03-01T09:55:13;7.80;43.60
21502;DHT22;27639;48.674;9.242;2023-03-01T09:57:53;8.00;43.10
21502;DHT22;27639;48.674;9.242;2023-03-01T10:00:41;8.10;42.20
21502;DHT22;27639;48.674;9.242;2023-03-01T10:03:31;8.10;43.10
21502;DHT22;27639;48.674;9.242;2023-03-01T10:06:06;8.20;42.80
21502;DHT22;27639;48.674;9.242;2023-03-01T10:08:40;8.30;42.00
21502;DHT22;27639;48.674;9.242;2023-03-01T10:11:59;8.30;42.30
21502;DHT22;27639;48.674;9.242;2023-03-01T10:17:27;8.20;42.20
21502;DHT22;27639;48.674;9.242;2023-03-01T10:20:14;8.40;42.40
21502;DHT22;27639;48.674;9.242;2023-03-01T10:22:56;8.40;42.70
21502;DHT22;27639;48.674;9.242;2023-03-01T10:25:52;8.50;42.70
21502;DHT22;27639;48.674;9.242;2023-03-01T10:28:25;8.60;42.60
21502;DHT22;27639;48.674;9.242;2023-03-01T10:30:51;8.80;42.70
21502;DHT22;27639;48.674;9.242;2023-03-01T10:35:45;9.10;41.30
21502;DHT22;27639;48.674;9.242;2023-03-01T10:38:14;8.90;41.40
21502;DHT22;27639;48.674;9.242;2023-03-01T10:41:00;9.00;42.00
21502;DHT22;27639;48.674;9.242;2023-03-01T10:43:50;9.20;42.00
21502;DHT22;27639;48.674;9.242;2023-03-01T10:46:29;9.30;41.70
21502;DHT22;27639;48.674;9.242;2023-03-01T10:51:33;9.50;40.90
21502;DHT22;27639;48.674;9.242;2023-03-01T10:53:59;9.50;41.20
21502;DHT22;27639;48.674;9.242;2023-03-01T10:56:24;9.60;41.40
21502;DHT22;27639;48.674;9.242;2023-03-01T10:59:04;9.80;40.80
21502;DHT22;27639;48.674;9.242;2023-03-01T11:01:33;9.80;41.00
21502;DHT22;27639;48.674;9.242;2023-03-01T11:04:12;9.90;40.60
21502;DHT22;27639;48.674;9.242;2023-03-01T11:06:41;10.00;39.60
21502;DHT22;27639;48.674;9.242;2023-03-01T11:09:24;10.10;38.90
21502;DHT22;27639;48.674;9.242;2023-03-01T11:11:57;10.10;38.60
21502;DHT22;27639;48.674;9.242;2023-03-01T11:14:24;10.00;39.20
21502;DHT22;27639;48.674;9.242;2023-03-01T11:17:27;10.10;39.50
21502;DHT22;27639;48.674;9.242;2023-03-01T11:22:47;10.30;39.20
21502;DHT22;27639;48.674;9.242;2023-03-01T11:25:14;10.50;38.60
21502;DHT22;27639;48.674;9.242;2023-03-01T11:27:43;10.50;38.30
21502;DHT22;27639;48.674;9.242;2023-03-01T11:30:28;10.50;38.50
21502;DHT22;27639;48.674;9.242;2023-03-01T11:33:48;10.50;38.80
21502;DHT22;27639;48.674;9.242;2023-03-01T11:35:57;10.50;39.40
21502;DHT22;27639;48.674;9.242;2023-03-01T11:38:26;10.70;38.10
21502;DHT22;27639;48.674;9.242;2023-03-01T11:43:49;10.60;38.80
21502;DHT22;27639;48.674;9.242;2023-03-01T11:52:04;10.80;37.80
21502;DHT22;27639;48.674;9.242;2023-03-01T12:05:55;11.00;37.90
21502;DHT22;27639;48.674;9.242;2023-03-01T12:08:37;11.10;38.00
21502;DHT22;27639;48.674;9.242;2023-03-01T12:21:53;11.60;37.90
21502;DHT22;27639;48.674;9.242;2023-03-01T12:38:31;12.10;37.00
21502;DHT22;27639;48.674;9.242;2023-03-01T12:49:23;12.50;36.20
21502;DHT22;27639;48.674;9.242;2023-03-01T12:51:56;12.60;36.70
21502;DHT22;27639;48.674;9.242;2023-03-01T12:54:30;12.60;36.20
21502;DHT22;27639;48.674;9.242;2023-03-01T12:57:02;12.60;35.70
21502;DHT22;27639;48.674;9.242;2023-03-01T13:00:02;12.60;36.00
21502;DHT22;27639;48.674;9.242;2023-03-01T13:02:45;12.60;36.50
21502;DHT22;27639;48.674;9.242;2023-03-01T13:08:02;12.70;35.70
21502;DHT22;27639;48.674;9.242;2023-03-01T13:10:49;12.70;36.50
21502;DHT22;27639;48.674;9.242;2023-03-01T13:15:44;12.80;35.80
21502;DHT22;27639;48.674;9.242;2023-03-01T13:26:07;12.80;35.70
21502;DHT22;27639;48.674;9.242;2023-03-01T13:39:02;12.80;35.00
21502;DHT22;27639;48.674;9.242;2023-03-01T13:46:53;12.70;35.40
21502;DHT22;27639;48.674;9.242;2023-03-01T13:49:28;12.70;35.30
21502;DHT22;27639;48.674;9.242;2023-03-01T13:51:54;12.70;35.10
21502;DHT22;27639;48.674;9.242;2023-03-01T13:54:29;12.60;35.20
21502;DHT22;27639;48.674;9.242;2023-03-01T13:56:57;12.60;35.00
21502;DHT22;27639;48.674;9.242;2023-03-01T13:59:23;12.60;35.50
21502;DHT22;27639;48.674;9.242;2023-03-01T14:01:59;12.60;35.30
21502;DHT22;27639;48.674;9.242;2023-03-01T14:04:30;12.60;35.00
21502;DHT22;27639;48.674;9.242;2023-03-01T14:09:39;12.40;35.70
21502;DHT22;27639;48.674;9.242;2023-03-01T14:15:05;12.40;35.50
21502;DHT22;27639;48.674;9.242;2023-03-01T14:20:20;12.50;35.50
21502;DHT22;27639;48.674;9.242;2023-03-01T14:22:47;12.50;35.60
21502;DHT22;27639;48.674;9.242;2023-03-01T14:25:24;12.50;35.60
21502;DHT22;27639;48.674;9.242;2023-03-01T14:30:37;12.50;35.70
21502;DHT22;27639;48.674;9.242;2023-03-01T14:33:05;12.60;35.50
21502;DHT22;27639;48.674;9.242;2023-03-01T14:35:34;12.60;35.40
21502;DHT22;27639;48.674;9.242;2023-03-01T14:38:01;12.50;34.90
21502;DHT22;27639;48.674;9.242;2023-03-01T14:42:53;12.50;35.30
21502;DHT22;27639;48.674;9.242;2023-03-01T14:45:20;12.40;35.40
21502;DHT22;27639;48.674;9.242;2023-03-01T14:47:46;12.40;35.90
21502;DHT22;27639;48.674;9.242;2023-03-01T14:50:30;12.40;36.10
21502;DHT22;27639;48.674;9.242;2023-03-01T14:52:59;12.40;36.00
21502;DHT22;27639;48.674;9.242;2023-03-01T14:55:33;12.40;36.20
21502;DHT22;27639;48.674;9.242;2023-03-01T14:58:02;12.50;35.70
21502;DHT22;27639;48.674;9.242;2023-03-01T15:00:30;12.50;35.50
21502;DHT22;27639;48.674;9.242;2023-03-01T15:02:59;12.50;35.80
21502;DHT22;27639;48.674;9.242;2023-03-01T15:05:30;12.50;35.60
21502;DHT22;27639;48.674;9.242;2023-03-01T15:07:57;12.40;35.60
21502;DHT22;27639;48.674;9.242;2023-03-01T15:10:35;12.40;35.70
21502;DHT22;27639;48.674;9.242;2023-03-01T15:13:24;12.30;35.80
21502;DHT22;27639;48.674;9.242;2023-03-01T15:15:51;12.30;36.00
21502;DHT22;27639;48.674;9.242;2023-03-01T15:18:29;12.20;36.30
21502;DHT22;27639;48.674;9.242;2023-03-01T15:20:56;12.30;36.00
21502;DHT22;27639;48.674;9.242;2023-03-01T15:23:30;12.20;36.10
21502;DHT22;27639;48.674;9.242;2023-03-01T15:25:56;12.20;36.00
21502;DHT22;27639;48.674;9.242;2023-03-01T15:28:31;12.10;36.30
21502;DHT22;27639;48.674;9.242;2023-03-01T15:31:02;12.10;36.40
21502;DHT22;27639;48.674;9.242;2023-03-01T15:33:36;12.10;36.40
21502;DHT22;27639;48.674;9.242;2023-03-01T15:36:47;12.00;36.70
21502;DHT22;27639;48.674;9.242;2023-03-01T15:39:26;11.90;36.60
21502;DHT22;27639;48.674;9.242;2023-03-01T15:41:52;11.90;36.60
21502;DHT22;27639;48.674;9.242;2023-03-01T15:46:51;11.90;36.60
21502;DHT22;27639;48.674;9.242;2023-03-01T15:51:55;11.80;36.50
21502;DHT22;27639;48.674;9.242;2023-03-01T15:54:23;11.80;36.60
21502;DHT22;27639;48.674;9.242;2023-03-01T15:56:49;11.70;36.50
21502;DHT22;27639;48.674;9.242;2023-03-01T15:59:14;11.60;36.40
21502;DHT22;27639;48.674;9.242;2023-03-01T16:01:41;11.60;36.50
21502;DHT22;27639;48.674;9.242;2023-03-01T16:04:06;11.50;36.80
21502;DHT22;27639;48.674;9.242;2023-03-01T16:06:32;11.50;37.00
21502;DHT22;27639;48.674;9.242;2023-03-01T16:08:57;11.50;36.60
21502;DHT22;27639;48.674;9.242;2023-03-01T16:11:23;11.40;36.80
21502;DHT22;27639;48.674;9.242;2023-03-01T16:13:49;11.40;37.20
21502;DHT22;27639;48.674;9.242;2023-03-01T16:16:15;11.30;37.20
21502;DHT22;27639;48.674;9.242;2023-03-01T16:18:47;11.30;37.20
21502;DHT22;27639;48.674;9.242;2023-03-01T16:21:21;11.30;37.10
21502;DHT22;27639;48.674;9.242;2023-03-01T16:23:48;11.20;37.10
21502;DHT22;27639;48.674;9.242;2023-03-01T16:26:13;11.20;37.20
21502;DHT22;27639;48.674;9.242;2023-03-01T16:28:41;11.10;37.20
21502;DHT22;27639;48.674;9.242;2023-03-01T16:31:07;11.10;37.40
21502;DHT22;27639;48.674;9.242;2023-03-01T16:33:32;11.10;37.50
21502;DHT22;27639;48.674;9.242;2023-03-01T16:36:10;11.00;37.60
21502;DHT22;27639;48.674;9.242;2023-03-01T16:38:37;11.00;37.60
21502;DHT22;27639;48.674;9.242;2023-03-01T16:41:04;11.00;37.60
21502;DHT22;27639;48.674;9.242;2023-03-01T16:43:30;10.90;37.60
21502;DHT22;27639;48.674;9.242;2023-03-01T16:45:56;10.90;37.50
21502;DHT22;27639;48.674;9.242;2023-03-01T16:48:22;10.80;37.70
21502;DHT22;27639;48.674;9.242;2023-03-01T16:51:00;10.70;37.80
21502;DHT22;27639;48.674;9.242;2023-03-01T16:53:27;10.60;37.80
21502;DHT22;27639;48.674;9.242;2023-03-01T16:55:57;10.60;37.90
21502;DHT22;27639;48.674;9.242;2023-03-01T16:58:23;10.50;37.80
21502;DHT22;27639;48.674;9.242;2023-03-01T17:00:51;10.40;38.00
21502;DHT22;27639;48.674;9.242;2023-03-01T17:03:16;10.40;38.00
21502;DHT22;27639;48.674;9.242;2023-03-01T17:05:42;10.30;38.10
21502;DHT22;27639;48.674;9.242;2023-03-01T17:08:08;10.30;38.20
21502;DHT22;27639;48.674;9.242;2023-03-01T17:10:33;10.20;38.20
21502;DHT22;27639;48.674;9.242;2023-03-01T17:12:59;10.20;38.30
21502;DHT22;27639;48.674;9.242;2023-03-01T17:15:24;10.20;38.40
21502;DHT22;27639;48.674;9.242;2023-03-01T17:17:50;10.10;38.30
21502;DHT22;27639;48.674;9.242;2023-03-01T17:20:16;10.10;38.40
21502;DHT22;27639;48.674;9.242;2023-03-01T17:22:42;10.00;38.40
21502;DHT22;27639;48.674;9.242;2023-03-01T17:25:09;10.00;38.60
21502;DHT22;27639;48.674;9.242;2023-03-01T17:27:36;9.90;39.50
21502;DHT22;27639;48.674;9.242;2023-03-01T17:30:03;9.90;39.50
21502;DHT22;27639;48.674;9.242;2023-03-01T17:32:29;9.90;39.60
21502;DHT22;27639;48.674;9.242;2023-03-01T17:34:55;9.80;40.20
21502;DHT22;27639;48.674;9.242;2023-03-01T17:37:21;9.80;39.60
21502;DHT22;27639;48.674;9.242;2023-03-01T17:39:47;9.80;39.70
21502;DHT22;27639;48.674;9.242;2023-03-01T17:42:12;9.80;39.70
21502;DHT22;27639;48.674;9.242;2023-03-01T17:44:38;9.70;39.60
21502;DHT22;27639;48.674;9.242;2023-03-01T17:47:04;9.70;39.60
21502;DHT22;27639;48.674;9.242;2023-03-01T17:49:30;9.70;39.70
21502;DHT22;27639;48.674;9.242;2023-03-01T17:51:56;9.60;39.60